Time;durP1;ratioP1;P1;durP2;ratioP2;P2;SDS_P1;SDS_P2;PMS_P1;PMS_P2;Temp;Humidity;BMP_temperature;BMP_pressure;BME280_temperature;BME280_humidity;BME280_pressure;Samples;Min_cycle;Max_cycle;Signal;HPM_P1;HPM_P2
2024/03/07 00:00:18;;;;;;;43.30;10.40;;;3.10;100.00;;;;;;5085051;28;20079;-80
2024/03/07 00:02:50;;;;;;;27.67;11.00;;;3.10;100.00;;;;;;5067714;28;20071;-80
2024/03/07 00:05:19;;;;;;;31.08;10.43;;;3.10;100.00;;;;;;5085185;28;20041;-79
2024/03/07 00:07:47;;;;;;;32.88;11.18;;;3.10;100.00;;;;;;5084507;28;20059;-79
2024/03/07 00:10:15;;;;;;;24.73;11.05;;;3.00;100.00;;;;;;5059620;28;20059;-79
2024/03/07 00:12:43;;;;;;;26.83;9.93;;;3.00;100.00;;;;;;5075249;28;20127;-80
2024/03/07 00:15:11;;;;;;;26.55;10.52;;;3.00;100.00;;;;;;5080734;28;20044;-79
2024/03/07 00:17:39;;;;;;;20.63;9.80;;;3.00;100.00;;;;;;5083581;28;20651;-79
2024/03/07 00:20:14;;;;;;;27.00;10.57;;;3.00;100.00;;;;;;5072648;28;20078;-79
2024/03/07 00:22:42;;;;;;;27.98;10.45;;;2.90;100.00;;;;;;5092074;28;20062;-79
2024/03/07 00:25:09;;;;;;;28.30;10.38;;;2.90;100.00;;;;;;5066291;28;21262;-79
2024/03/07 00:27:38;;;;;;;24.48;10.40;;;2.90;100.00;;;;;;5084673;28;20102;-79
2024/03/07 00:30:08;;;;;;;27.60;10.43;;;2.90;100.00;;;;;;5081794;28;21283;-80
2024/03/07 00:32:39;;;;;;;26.45;10.15;;;2.90;100.00;;;;;;5080273;28;20071;-79
2024/03/07 00:35:08;;;;;;;34.72;11.65;;;2.90;100.00;;;;;;5068477;28;20044;-79
2024/03/07 00:37:36;;;;;;;32.20;11.40;;;2.90;100.00;;;;;;5084986;28;20051;-80
2024/03/07 00:40:04;;;;;;;34.67;11.88;;;2.90;100.00;;;;;;5065289;28;20055;-79
2024/03/07 00:42:30;;;;;;;29.70;10.57;;;2.90;100.00;;;;;;5080693;28;20044;-80
2024/03/07 00:44:57;;;;;;;27.40;10.93;;;2.90;100.00;;;;;;5085361;28;20059;-79
2024/03/07 00:47:24;;;;;;;29.40;11.13;;;2.90;100.00;;;;;;5085324;28;20362;-79
2024/03/07 00:49:51;;;;;;;24.17;10.70;;;2.90;100.00;;;;;;5062721;28;20056;-79
2024/03/07 00:52:18;;;;;;;29.02;10.50;;;2.90;100.00;;;;;;5078476;28;20072;-79
2024/03/07 00:54:45;;;;;;;31.90;10.98;;;2.90;100.00;;;;;;5087630;28;20052;-79
2024/03/07 00:57:12;;;;;;;29.17;10.07;;;2.90;100.00;;;;;;5077715;28;20039;-80
2024/03/07 00:59:39;;;;;;;26.60;10.10;;;2.80;100.00;;;;;;5069317;28;20480;-79
2024/03/07 01:02:05;;;;;;;22.65;9.82;;;2.80;100.00;;;;;;5080527;28;20052;-79
2024/03/07 01:04:33;;;;;;;28.05;10.73;;;2.80;100.00;;;;;;5076185;28;20076;-79
2024/03/07 01:07:01;;;;;;;21.65;9.90;;;2.80;100.00;;;;;;5078281;28;20049;-80
2024/03/07 01:09:28;;;;;;;25.40;10.25;;;2.80;100.00;;;;;;5085525;28;20055;-79
2024/03/07 01:11:55;;;;;;;33.20;10.23;;;2.70;100.00;;;;;;5081555;28;20047;-79
2024/03/07 01:14:23;;;;;;;28.42;9.27;;;2.80;100.00;;;;;;5067764;28;20048;-79
2024/03/07 01:16:50;;;;;;;24.65;10.52;;;2.80;100.00;;;;;;5079487;28;20131;-79
2024/03/07 01:19:17;;;;;;;25.25;9.38;;;2.70;100.00;;;;;;5087344;28;20083;-79
2024/03/07 01:21:44;;;;;;;19.35;9.10;;;2.70;100.00;;;;;;5071680;28;20508;-79
2024/03/07 01:24:11;;;;;;;22.48;9.48;;;2.70;100.00;;;;;;5084988;28;20126;-80
2024/03/07 01:26:38;;;;;;;25.23;9.57;;;2.70;100.00;;;;;;5090239;28;20079;-80
2024/03/07 01:29:06;;;;;;;23.10;9.82;;;2.70;100.00;;;;;;5068227;28;20052;-79
2024/03/07 01:31:34;;;;;;;23.55;9.88;;;2.70;100.00;;;;;;5084843;28;20060;-79
2024/03/07 01:34:01;;;;;;;20.92;9.98;;;2.70;100.00;;;;;;5087774;28;20048;-79
2024/03/07 01:36:28;;;;;;;23.33;8.57;;;2.70;100.00;;;;;;5070327;28;20055;-79
2024/03/07 01:38:54;;;;;;;22.77;10.10;;;2.70;100.00;;;;;;5084648;28;20488;-79
2024/03/07 01:41:21;;;;;;;24.02;10.20;;;2.70;100.00;;;;;;5060961;28;20043;-79
2024/03/07 01:43:48;;;;;;;29.30;10.45;;;2.70;100.00;;;;;;5084088;28;20739;-80
2024/03/07 01:46:16;;;;;;;27.45;10.15;;;2.70;100.00;;;;;;5064951;28;20044;-79
2024/03/07 01:48:43;;;;;;;29.75;9.98;;;2.70;100.00;;;;;;5088058;28;20121;-80
2024/03/07 01:51:10;;;;;;;27.55;9.70;;;2.70;100.00;;;;;;5079058;28;20078;-80
2024/03/07 01:53:38;;;;;;;28.20;9.38;;;2.70;100.00;;;;;;5084406;28;20056;-79
2024/03/07 01:56:05;;;;;;;20.48;9.63;;;2.70;100.00;;;;;;5088152;28;20048;-79
2024/03/07 01:58:35;;;;;;;24.55;9.88;;;2.70;100.00;;;;;;5062899;28;20055;-79
2024/03/07 02:01:02;;;;;;;27.75;10.55;;;2.70;100.00;;;;;;5059625;28;20215;-80
2024/03/07 02:03:29;;;;;;;32.20;10.65;;;2.70;100.00;;;;;;5085303;28;20453;-79
2024/03/07 02:05:56;;;;;;;32.75;10.45;;;2.70;100.00;;;;;;5076792;28;20041;-79
2024/03/07 02:08:23;;;;;;;32.55;10.00;;;2.70;100.00;;;;;;5090036;28;20044;-80
2024/03/07 02:10:50;;;;;;;25.00;9.85;;;2.70;100.00;;;;;;5081220;28;20044;-79
2024/03/07 02:13:17;;;;;;;31.33;10.32;;;2.70;100.00;;;;;;5087640;28;20048;-79
2024/03/07 02:15:44;;;;;;;27.20;10.80;;;2.70;100.00;;;;;;5090914;28;20051;-79
2024/03/07 02:18:11;;;;;;;28.17;10.48;;;2.70;100.00;;;;;;5082530;28;20485;-80
2024/03/07 02:20:42;;;;;;;30.42;10.60;;;2.70;100.00;;;;;;5085299;28;20071;-79
2024/03/07 02:23:08;;;;;;;30.40;10.77;;;2.70;100.00;;;;;;5073957;28;20113;-79
2024/03/07 02:25:37;;;;;;;25.23;10.82;;;2.70;100.00;;;;;;5080843;28;20045;-80
2024/03/07 02:28:04;;;;;;;26.35;11.18;;;2.70;100.00;;;;;;5085038;28;20052;-79
2024/03/07 02:30:32;;;;;;;38.38;11.77;;;2.70;100.00;;;;;;5072787;28;20052;-79
2024/03/07 02:33:06;;;;;;;28.70;11.05;;;2.70;100.00;;;;;;5085499;28;20156;-79
2024/03/07 02:35:35;;;;;;;32.88;11.50;;;2.70;100.00;;;;;;5082560;28;20404;-80
2024/03/07 02:38:05;;;;;;;30.85;11.75;;;2.70;100.00;;;;;;5085407;28;20091;-79
2024/03/07 02:40:32;;;;;;;29.13;10.82;;;2.70;100.00;;;;;;5090872;28;20079;-80
2024/03/07 02:42:59;;;;;;;29.02;11.23;;;2.70;100.00;;;;;;5062714;28;20079;-79
2024/03/07 02:45:26;;;;;;;31.42;11.60;;;2.70;100.00;;;;;;5081837;28;20123;-79
2024/03/07 02:47:53;;;;;;;27.00;10.85;;;2.70;100.00;;;;;;5091494;28;20055;-80
2024/03/07 02:50:24;;;;;;;26.75;10.90;;;2.70;100.00;;;;;;5086899;28;20116;-80
2024/03/07 02:52:52;;;;;;;31.17;12.30;;;2.70;100.00;;;;;;5090259;28;20159;-79
2024/03/07 02:55:20;;;;;;;30.25;12.02;;;2.70;100.00;;;;;;5064079;28;20769;-79
2024/03/07 02:57:47;;;;;;;34.13;11.43;;;2.70;100.00;;;;;;5086657;28;20496;-79
2024/03/07 03:00:23;;;;;;;35.97;12.02;;;2.70;100.00;;;;;;5073166;28;20040;-79
2024/03/07 03:02:50;;;;;;;26.08;11.50;;;2.70;100.00;;;;;;5088680;28;20145;-79
2024/03/07 03:05:18;;;;;;;38.80;12.27;;;2.70;100.00;;;;;;5076310;28;20036;-79
2024/03/07 03:07:52;;;;;;;28.42;11.50;;;2.70;100.00;;;;;;5094367;28;20050;-79
2024/03/07 03:10:25;;;;;;;29.48;11.60;;;2.70;100.00;;;;;;5083740;28;20059;-79
2024/03/07 03:12:56;;;;;;;30.60;12.45;;;2.70;100.00;;;;;;5085215;28;20071;-79
2024/03/07 03:15:23;;;;;;;36.47;12.80;;;2.70;100.00;;;;;;5060864;28;20549;-78
2024/03/07 03:17:51;;;;;;;31.20;11.65;;;2.70;100.00;;;;;;5085407;28;20169;-78
2024/03/07 03:20:24;;;;;;;34.15;11.23;;;2.70;100.00;;;;;;5080529;28;20044;-78
2024/03/07 03:22:52;;;;;;;35.35;12.13;;;2.70;100.00;;;;;;5081196;28;20044;-78
2024/03/07 03:25:40;;;;;;;27.30;11.70;;;2.70;100.00;;;;;;5082901;28;20055;-78
2024/03/07 03:28:09;;;;;;;30.45;11.68;;;2.70;100.00;;;;;;5077519;28;20684;-78
2024/03/07 03:30:41;;;;;;;32.63;11.48;;;2.70;100.00;;;;;;5065296;28;20048;-78
2024/03/07 03:33:09;;;;;;;33.17;12.32;;;2.70;100.00;;;;;;5066487;28;20056;-78
2024/03/07 03:35:37;;;;;;;32.28;12.10;;;2.70;100.00;;;;;;5065554;28;20408;-78
2024/03/07 03:38:05;;;;;;;34.83;13.27;;;2.70;100.00;;;;;;5079673;28;20048;-78
2024/03/07 03:40:32;;;;;;;39.65;13.15;;;2.70;100.00;;;;;;5058046;28;20051;-78
2024/03/07 03:42:59;;;;;;;27.08;11.32;;;2.70;100.00;;;;;;5060149;28;20136;-78
2024/03/07 03:45:26;;;;;;;35.35;12.52;;;2.80;100.00;;;;;;5063011;28;20439;-79
2024/03/07 03:47:54;;;;;;;31.83;11.90;;;2.70;100.00;;;;;;5068445;28;20056;-79
2024/03/07 03:50:24;;;;;;;32.17;12.77;;;2.70;100.00;;;;;;5080448;28;20052;-79
2024/03/07 03:52:51;;;;;;;33.45;12.95;;;2.70;100.00;;;;;;5084548;28;20052;-79
2024/03/07 03:55:18;;;;;;;34.30;12.50;;;2.70;100.00;;;;;;5084886;28;20094;-79
2024/03/07 03:57:48;;;;;;;38.22;13.05;;;2.80;100.00;;;;;;5080671;28;20487;-79
2024/03/07 04:00:16;;;;;;;40.40;12.45;;;2.80;100.00;;;;;;5087156;28;20047;-79
2024/03/07 04:02:47;;;;;;;31.23;13.02;;;2.80;100.00;;;;;;5081074;28;20043;-79
2024/03/07 04:05:17;;;;;;;32.88;12.35;;;2.80;100.00;;;;;;5087365;28;20145;-79
2024/03/07 04:07:45;;;;;;;32.47;12.27;;;2.80;100.00;;;;;;5080900;28;20148;-79
2024/03/07 04:10:13;;;;;;;37.22;13.30;;;2.80;100.00;;;;;;5054178;28;20102;-79
2024/03/07 04:12:40;;;;;;;32.80;13.10;;;2.80;100.00;;;;;;5083939;28;20056;-78
2024/03/07 04:15:13;;;;;;;38.10;13.38;;;2.80;100.00;;;;;;5087249;28;20051;-79
2024/03/07 04:17:40;;;;;;;34.70;12.18;;;2.80;100.00;;;;;;5073420;28;20040;-79
2024/03/07 04:20:10;;;;;;;35.88;13.10;;;2.80;100.00;;;;;;5078877;28;20168;-79
2024/03/07 04:22:41;;;;;;;31.70;13.93;;;2.80;100.00;;;;;;5080073;28;20055;-79
2024/03/07 04:25:09;;;;;;;32.35;12.45;;;2.80;100.00;;;;;;5076409;28;20113;-78
2024/03/07 04:27:36;;;;;;;34.40;12.10;;;2.90;100.00;;;;;;5081711;28;20044;-79
2024/03/07 04:30:07;;;;;;;37.08;13.32;;;2.90;100.00;;;;;;5085782;28;20055;-79
2024/03/07 04:32:34;;;;;;;34.95;13.43;;;2.90;100.00;;;;;;5080189;28;20100;-79
2024/03/07 04:35:07;;;;;;;34.55;13.20;;;2.90;100.00;;;;;;5077676;28;20275;-79
2024/03/07 04:37:37;;;;;;;41.30;14.65;;;2.90;100.00;;;;;;5086577;28;20169;-80
2024/03/07 04:40:14;;;;;;;34.75;14.15;;;2.90;100.00;;;;;;5083989;28;20052;-81
2024/03/07 04:42:52;;;;;;;34.78;13.25;;;2.90;100.00;;;;;;5060564;28;20048;-80
2024/03/07 04:45:20;;;;;;;35.10;14.30;;;3.00;100.00;;;;;;5058514;28;20044;-80
2024/03/07 04:47:47;;;;;;;39.03;14.63;;;2.90;100.00;;;;;;5078301;28;20052;-80
2024/03/07 04:50:18;;;;;;;47.50;13.27;;;3.00;100.00;;;;;;5072338;28;20151;-80
2024/03/07 04:52:46;;;;;;;43.05;13.57;;;3.00;100.00;;;;;;5069983;28;20131;-80
2024/03/07 04:55:15;;;;;;;36.97;14.27;;;3.00;100.00;;;;;;5081440;28;20048;-80
2024/03/07 04:57:42;;;;;;;41.08;15.52;;;3.00;100.00;;;;;;5083502;28;20720;-80
2024/03/07 05:00:14;;;;;;;37.90;15.18;;;3.00;100.00;;;;;;5079365;28;20650;-80
2024/03/07 05:02:45;;;;;;;38.40;14.88;;;3.00;100.00;;;;;;5071189;28;20048;-78
2024/03/07 05:05:12;;;;;;;42.50;16.05;;;3.00;100.00;;;;;;5058977;28;20048;-78
2024/03/07 05:07:40;;;;;;;51.38;16.92;;;3.00;100.00;;;;;;5076003;28;20053;-79
2024/03/07 05:10:08;;;;;;;46.78;15.77;;;3.00;100.00;;;;;;5073993;28;20089;-79
2024/03/07 05:12:36;;;;;;;36.13;16.30;;;3.00;100.00;;;;;;5068193;28;20048;-79
2024/03/07 05:15:05;;;;;;;48.17;16.15;;;3.00;100.00;;;;;;5079642;28;20052;-80
2024/03/07 05:17:34;;;;;;;50.30;16.92;;;3.00;100.00;;;;;;5068573;28;20462;-79
2024/03/07 05:20:02;;;;;;;46.08;17.65;;;3.00;100.00;;;;;;5082695;28;20123;-79
2024/03/07 05:22:30;;;;;;;42.70;16.85;;;3.10;100.00;;;;;;5086807;28;20376;-79
2024/03/07 05:24:58;;;;;;;43.25;16.63;;;3.00;100.00;;;;;;5080430;28;20726;-79
2024/03/07 05:27:27;;;;;;;44.40;16.40;;;3.10;100.00;;;;;;5064849;28;20048;-79
2024/03/07 05:29:55;;;;;;;50.67;17.60;;;3.10;100.00;;;;;;5071648;28;20066;-79
2024/03/07 05:32:24;;;;;;;47.45;17.55;;;3.10;100.00;;;;;;5073417;28;20048;-81
2024/03/07 05:34:53;;;;;;;49.85;18.52;;;3.10;100.00;;;;;;5060290;28;20063;-80
2024/03/07 05:37:23;;;;;;;52.30;18.83;;;3.10;100.00;;;;;;5061625;28;20045;-77
2024/03/07 05:39:51;;;;;;;53.70;18.83;;;3.10;100.00;;;;;;5058277;28;20040;-78
2024/03/07 05:42:18;;;;;;;50.95;18.25;;;3.10;100.00;;;;;;5062400;28;20784;-78
2024/03/07 05:44:45;;;;;;;47.00;16.35;;;3.10;100.00;;;;;;5080943;28;20044;-76
2024/03/07 05:47:16;;;;;;;49.50;18.80;;;3.00;100.00;;;;;;5070267;28;20044;-83
2024/03/07 05:49:43;;;;;;;50.55;17.20;;;3.00;100.00;;;;;;5077475;28;20842;-79
2024/03/07 05:52:10;;;;;;;44.10;17.23;;;3.00;100.00;;;;;;5071130;28;20131;-78
2024/03/07 05:54:37;;;;;;;48.00;18.73;;;3.10;100.00;;;;;;5073940;28;20048;-83
2024/03/07 05:57:06;;;;;;;65.15;20.30;;;3.10;100.00;;;;;;5081376;28;20075;-83
2024/03/07 05:59:33;;;;;;;46.65;17.77;;;3.00;100.00;;;;;;5082039;28;20060;-78
2024/03/07 06:02:00;;;;;;;51.72;17.40;;;3.00;100.00;;;;;;5061656;28;20048;-83
2024/03/07 06:04:27;;;;;;;48.75;18.65;;;3.00;100.00;;;;;;5068698;28;20045;-79
2024/03/07 06:06:54;;;;;;;54.10;18.55;;;3.00;100.00;;;;;;5056094;28;20508;-82
2024/03/07 06:09:21;;;;;;;45.22;17.35;;;3.00;100.00;;;;;;5070969;28;20064;-83
2024/03/07 06:11:49;;;;;;;45.38;17.05;;;3.00;100.00;;;;;;5069965;28;20056;-79
2024/03/07 06:14:17;;;;;;;54.03;18.83;;;3.00;100.00;;;;;;5074789;28;20048;-83
2024/03/07 06:16:44;;;;;;;46.05;17.55;;;3.00;100.00;;;;;;5080008;28;20561;-79
2024/03/07 06:19:11;;;;;;;52.45;18.15;;;2.90;100.00;;;;;;5060524;28;20044;-79
2024/03/07 06:21:40;;;;;;;47.63;17.17;;;2.90;100.00;;;;;;5075669;28;20083;-84
2024/03/07 06:24:10;;;;;;;53.00;16.27;;;2.90;100.00;;;;;;5080802;28;20056;-82
2024/03/07 06:29:11;;;;;;;43.83;17.70;;;2.90;100.00;;;;;;5076237;28;20051;-78
2024/03/07 06:31:38;;;;;;;41.28;16.75;;;2.90;100.00;;;;;;5083473;28;20109;-80
2024/03/07 06:34:05;;;;;;;46.28;16.45;;;2.90;100.00;;;;;;5082199;28;20091;-80
2024/03/07 06:36:32;;;;;;;47.70;16.17;;;2.90;100.00;;;;;;5062342;28;20043;-80
2024/03/07 06:38:59;;;;;;;45.63;15.98;;;2.80;100.00;;;;;;5080005;28;20093;-79
2024/03/07 06:41:26;;;;;;;50.15;16.48;;;2.80;100.00;;;;;;5084801;28;20094;-80
2024/03/07 06:43:55;;;;;;;37.67;15.10;;;2.80;100.00;;;;;;5068110;28;20152;-79
2024/03/07 06:46:22;;;;;;;43.25;16.55;;;2.90;100.00;;;;;;5059608;28;20570;-80
2024/03/07 06:48:48;;;;;;;44.30;16.27;;;2.80;100.00;;;;;;5083243;28;20453;-80
2024/03/07 06:51:17;;;;;;;36.67;15.52;;;2.90;100.00;;;;;;5067966;28;20480;-80
2024/03/07 06:53:47;;;;;;;51.78;16.80;;;2.90;100.00;;;;;;5084459;28;20106;-80
2024/03/07 06:56:16;;;;;;;45.45;15.63;;;2.90;100.00;;;;;;5082104;28;20045;-80
2024/03/07 06:58:45;;;;;;;42.88;16.52;;;2.90;100.00;;;;;;5064885;28;20209;-80
2024/03/07 07:01:15;;;;;;;50.47;16.25;;;2.90;100.00;;;;;;5081008;28;20047;-80
2024/03/07 07:03:47;;;;;;;45.08;16.63;;;2.90;100.00;;;;;;5073766;28;20086;-80
2024/03/07 07:06:14;;;;;;;52.45;17.13;;;2.90;100.00;;;;;;5067783;28;20070;-80
2024/03/07 07:08:41;;;;;;;47.28;17.40;;;2.90;100.00;;;;;;5085497;28;20088;-80
2024/03/07 07:11:11;;;;;;;52.25;19.73;;;2.90;100.00;;;;;;5091380;28;20502;-80
2024/03/07 07:13:38;;;;;;;49.78;18.35;;;2.90;100.00;;;;;;5075082;28;20051;-80
2024/03/07 07:16:05;;;;;;;50.75;18.20;;;2.90;100.00;;;;;;5082775;28;20055;-80
2024/03/07 07:18:33;;;;;;;52.05;18.55;;;2.90;100.00;;;;;;5088001;28;20059;-81
2024/03/07 07:21:02;;;;;;;59.90;20.15;;;3.00;100.00;;;;;;5092733;28;20056;-80
2024/03/07 07:23:30;;;;;;;52.30;20.20;;;2.90;100.00;;;;;;5093210;28;20048;-80
2024/03/07 07:25:57;;;;;;;52.78;19.38;;;2.90;100.00;;;;;;5089684;28;20747;-80
2024/03/07 07:28:24;;;;;;;49.63;20.90;;;3.00;100.00;;;;;;5093777;28;20040;-80
2024/03/07 07:30:51;;;;;;;63.05;21.30;;;3.00;100.00;;;;;;5060949;28;20571;-80
2024/03/07 07:33:18;;;;;;;75.13;23.73;;;3.10;100.00;;;;;;5064096;28;20571;-79
2024/03/07 07:35:45;;;;;;;87.38;26.60;;;3.10;100.00;;;;;;5080059;28;20231;-80
2024/03/07 07:38:14;;;;;;;81.22;28.45;;;3.20;100.00;;;;;;5077188;28;20723;-79
2024/03/07 07:40:42;;;;;;;104.68;35.47;;;3.40;100.00;;;;;;5074230;28;20054;-80
2024/03/07 07:43:13;;;;;;;118.00;37.28;;;3.50;100.00;;;;;;5080555;28;20056;-79
2024/03/07 07:45:51;;;;;;;136.50;38.47;;;3.50;100.00;;;;;;5057754;28;20110;-80
2024/03/07 07:48:19;;;;;;;125.70;36.22;;;3.40;100.00;;;;;;5088081;28;20056;-79
2024/03/07 07:50:49;;;;;;;121.30;36.10;;;3.20;100.00;;;;;;5085733;28;20084;-80
2024/03/07 07:53:16;;;;;;;115.47;35.83;;;3.20;100.00;;;;;;5067540;28;20052;-79
2024/03/07 07:55:43;;;;;;;114.53;35.47;;;3.20;100.00;;;;;;5070326;28;20044;-79
2024/03/07 07:58:10;;;;;;;129.60;33.63;;;3.20;100.00;;;;;;5087920;28;20145;-80
2024/03/07 08:00:36;;;;;;;125.78;35.65;;;3.30;100.00;;;;;;5091925;28;20048;-79
2024/03/07 08:03:08;;;;;;;122.18;37.47;;;3.40;100.00;;;;;;5059451;28;20048;-80
2024/03/07 08:05:37;;;;;;;104.40;33.92;;;3.50;100.00;;;;;;5068529;28;20048;-80
2024/03/07 08:08:06;;;;;;;113.05;35.03;;;3.50;100.00;;;;;;5071274;28;20056;-79
2024/03/07 08:10:36;;;;;;;113.47;37.30;;;3.60;100.00;;;;;;5080184;28;20052;-79
2024/03/07 08:13:05;;;;;;;117.82;36.70;;;3.60;100.00;;;;;;5070992;28;20048;-80
2024/03/07 08:15:33;;;;;;;119.03;35.88;;;3.90;100.00;;;;;;5086273;28;20056;-80
2024/03/07 08:18:00;;;;;;;112.50;36.88;;;4.30;100.00;;;;;;5070347;28;20570;-80
2024/03/07 08:20:28;;;;;;;102.50;37.30;;;4.90;100.00;;;;;;5068846;28;20109;-80
2024/03/07 08:22:56;;;;;;;111.00;36.22;;;5.10;100.00;;;;;;5085753;28;20482;-80
2024/03/07 08:25:24;;;;;;;119.65;37.05;;;5.10;100.00;;;;;;5070290;28;20044;-80
2024/03/07 08:27:57;;;;;;;101.65;35.03;;;5.70;100.00;;;;;;5091517;28;20040;-80
2024/03/07 08:30:25;;;;;;;104.80;36.40;;;5.90;100.00;;;;;;5089510;28;20172;-79
2024/03/07 08:32:54;;;;;;;105.45;33.63;;;6.10;100.00;;;;;;5070252;28;20087;-79
2024/03/07 08:35:22;;;;;;;102.95;32.40;;;6.20;100.00;;;;;;5070822;28;20056;-80
2024/03/07 08:37:53;;;;;;;104.35;33.70;;;6.00;100.00;;;;;;5065480;28;20107;-79
2024/03/07 08:40:23;;;;;;;91.97;33.35;;;6.10;100.00;;;;;;5071677;28;20044;-80
2024/03/07 08:42:55;;;;;;;99.55;33.58;;;6.00;100.00;;;;;;5080267;28;20059;-79
2024/03/07 08:45:23;;;;;;;90.78;31.40;;;6.20;100.00;;;;;;5064384;28;20044;-80
2024/03/07 08:47:51;;;;;;;92.05;33.50;;;6.30;100.00;;;;;;5088799;28;20446;-80
2024/03/07 08:50:19;;;;;;;99.40;33.30;;;6.10;100.00;;;;;;5066731;28;20044;-80
2024/03/07 08:52:47;;;;;;;92.03;31.00;;;5.90;100.00;;;;;;5082501;28;20056;-80
2024/03/07 08:55:16;;;;;;;102.05;34.15;;;5.80;100.00;;;;;;5085489;28;20132;-79
2024/03/07 08:57:48;;;;;;;93.47;33.22;;;5.70;100.00;;;;;;5060824;28;20059;-79
2024/03/07 09:00:26;;;;;;;92.53;33.47;;;5.90;100.00;;;;;;5085373;28;20052;-79
2024/03/07 09:02:59;;;;;;;89.60;32.75;;;6.00;100.00;;;;;;5072283;28;20052;-80
2024/03/07 09:05:29;;;;;;;92.00;32.25;;;6.10;100.00;;;;;;5082203;28;20089;-79
2024/03/07 09:07:58;;;;;;;93.97;30.95;;;6.30;100.00;;;;;;5082603;28;20504;-80
2024/03/07 09:10:25;;;;;;;95.85;30.52;;;6.40;100.00;;;;;;5088073;28;20055;-80
2024/03/07 09:12:53;;;;;;;70.88;25.27;;;6.50;100.00;;;;;;5063980;28;20056;-80
2024/03/07 09:15:22;;;;;;;69.45;25.50;;;6.70;100.00;;;;;;5084352;28;20517;-80
2024/03/07 09:17:51;;;;;;;56.22;22.67;;;6.90;100.00;;;;;;5083339;28;20744;-80
2024/03/07 09:20:18;;;;;;;61.97;23.50;;;7.10;100.00;;;;;;5087149;28;20131;-80
2024/03/07 09:22:50;;;;;;;62.92;23.63;;;7.40;100.00;;;;;;5082926;28;20048;-80
2024/03/07 09:25:18;;;;;;;56.08;23.05;;;7.60;100.00;;;;;;5059642;28;20041;-79
2024/03/07 09:27:46;;;;;;;49.78;20.75;;;7.60;100.00;;;;;;5071938;28;20048;-80
2024/03/07 09:30:21;;;;;;;66.63;24.50;;;7.70;100.00;;;;;;5082282;28;20051;-80
2024/03/07 09:32:48;;;;;;;51.00;21.77;;;8.00;100.00;;;;;;5089444;28;20059;-80
2024/03/07 09:35:16;;;;;;;57.42;24.02;;;7.90;100.00;;;;;;5064689;28;20131;-80
2024/03/07 09:37:44;;;;;;;68.90;25.80;;;8.20;100.00;;;;;;5054208;28;20056;-80
2024/03/07 09:40:14;;;;;;;60.60;24.27;;;8.10;100.00;;;;;;5083306;28;20121;-80
2024/03/07 09:42:52;;;;;;;50.28;22.92;;;8.30;100.00;;;;;;5082139;28;20048;-80
2024/03/07 09:45:22;;;;;;;59.60;24.08;;;8.70;100.00;;;;;;5082231;28;20054;-79
2024/03/07 09:47:51;;;;;;;53.95;23.42;;;9.10;100.00;;;;;;5070569;28;20545;-80
2024/03/07 09:50:24;;;;;;;57.03;22.50;;;9.60;100.00;;;;;;5067999;28;20058;-79
2024/03/07 09:52:55;;;;;;;53.72;23.50;;;9.90;100.00;;;;;;5089661;28;20074;-80
2024/03/07 09:55:24;;;;;;;52.40;21.33;;;10.40;100.00;;;;;;5089427;28;20052;-79
2024/03/07 09:57:55;;;;;;;48.75;21.38;;;10.50;100.00;;;;;;5072211;28;20048;-79
2024/03/07 10:00:27;;;;;;;43.50;20.33;;;10.80;100.00;;;;;;5080563;28;20056;-79
2024/03/07 10:03:05;;;;;;;43.72;20.25;;;10.90;100.00;;;;;;5065179;28;20041;-80
2024/03/07 10:05:32;;;;;;;44.45;19.38;;;10.70;100.00;;;;;;5081288;28;20120;-79
2024/03/07 10:08:01;;;;;;;45.33;20.75;;;11.30;100.00;;;;;;5088020;28;20052;-79
2024/03/07 10:10:29;;;;;;;42.58;18.80;;;11.30;100.00;;;;;;5083614;28;20133;-79
2024/03/07 10:12:58;;;;;;;45.05;20.80;;;11.00;100.00;;;;;;5077978;28;20464;-80
2024/03/07 10:15:33;;;;;;;42.63;20.15;;;11.20;100.00;;;;;;5069546;28;20052;-80
2024/03/07 10:18:02;;;;;;;42.17;19.25;;;11.40;100.00;;;;;;5088228;28;20439;-80
2024/03/07 10:20:30;;;;;;;42.17;18.80;;;11.50;100.00;;;;;;5070909;28;20523;-80
2024/03/07 10:22:57;;;;;;;43.83;19.48;;;11.70;100.00;;;;;;5079718;28;20101;-79
2024/03/07 10:25:27;;;;;;;35.03;17.90;;;12.10;100.00;;;;;;5080245;28;20067;-79
2024/03/07 10:27:54;;;;;;;34.45;17.10;;;12.40;100.00;;;;;;5078085;28;20531;-79
2024/03/07 10:30:21;;;;;;;34.08;16.67;;;12.20;100.00;;;;;;5086371;28;20044;-79
2024/03/07 10:32:56;;;;;;;39.33;16.45;;;12.00;100.00;;;;;;5065881;28;20078;-79
2024/03/07 10:35:25;;;;;;;29.17;15.63;;;12.70;100.00;;;;;;5085301;28;20044;-79
2024/03/07 10:37:59;;;;;;;35.90;15.80;;;12.70;100.00;;;;;;5093071;28;20040;-79
2024/03/07 10:40:27;;;;;;;33.30;14.85;;;12.80;100.00;;;;;;5087278;28;20397;-79
2024/03/07 10:43:02;;;;;;;29.60;14.65;;;13.60;100.00;;;;;;5066326;28;20098;-79
2024/03/07 10:45:30;;;;;;;;;;;13.90;100.00;;;;;;5065354;28;20072;-79
2024/03/07 10:48:00;;;;;;;28.30;14.27;;;13.90;100.00;;;;;;5092161;28;20014;-79
2024/03/07 10:50:55;;;;;;;26.10;14.18;;;13.90;100.00;;;;;;5090393;28;20052;-79
2024/03/07 10:53:35;;;;;;;26.55;14.20;;;14.00;100.00;;;;;;5062880;28;20066;-79
2024/03/07 10:56:03;;;;;;;34.50;13.02;;;14.60;97.40;;;;;;5074978;28;20076;-78
2024/03/07 10:58:53;;;;;;;28.33;13.32;;;14.50;100.00;;;;;;5088440;28;20056;-80
2024/03/07 11:01:22;;;;;;;22.33;11.77;;;14.50;84.40;;;;;;5080956;28;20047;-79
2024/03/07 11:03:51;;;;;;;22.02;11.45;;;14.20;61.10;;;;;;5091348;28;20502;-79
2024/03/07 11:06:20;;;;;;;24.13;12.13;;;14.10;56.40;;;;;;5086158;28;20457;-79
2024/03/07 11:08:47;;;;;;;30.77;11.57;;;13.80;60.70;;;;;;5070620;28;20052;-79
2024/03/07 11:11:14;;;;;;;23.48;11.45;;;13.70;56.90;;;;;;5068015;28;20128;-79
2024/03/07 11:13:42;;;;;;;29.98;12.02;;;13.40;57.60;;;;;;5078697;28;20071;-78
2024/03/07 11:16:09;;;;;;;23.27;11.43;;;13.20;59.70;;;;;;5083105;28;20052;-78
2024/03/07 11:18:36;;;;;;;25.55;11.18;;;13.30;55.90;;;;;;5080349;28;20063;-78
2024/03/07 11:21:04;;;;;;;26.70;11.50;;;13.70;56.40;;;;;;5062509;28;20097;-79
2024/03/07 11:23:41;;;;;;;32.65;11.70;;;14.00;57.30;;;;;;5085595;28;20048;-79
2024/03/07 11:26:09;;;;;;;25.25;10.55;;;14.40;54.20;;;;;;5064932;28;20072;-78
2024/03/07 11:28:38;;;;;;;22.52;10.40;;;15.10;50.80;;;;;;5085136;28;20102;-78
2024/03/07 11:31:27;;;;;;;21.50;11.73;;;15.50;51.00;;;;;;5074694;28;20331;-79
2024/03/07 11:34:19;;;;;;;32.30;11.85;;;15.90;49.30;;;;;;5074630;28;20619;-79
2024/03/07 11:36:49;;;;;;;23.38;11.57;;;16.30;48.50;;;;;;5086408;28;20056;-80
2024/03/07 11:39:42;;;;;;;26.08;11.23;;;16.20;47.90;;;;;;5083554;28;20689;-79
2024/03/07 11:42:22;;;;;;;22.92;12.27;;;15.40;49.60;;;;;;5063754;28;20044;-79
2024/03/07 11:44:51;;;;;;;34.17;12.13;;;15.60;48.10;;;;;;5084509;28;20091;-79
2024/03/07 11:47:18;;;;;;;17.38;8.88;;;15.30;51.90;;;;;;5088240;28;20070;-79
2024/03/07 11:49:48;;;;;;;21.27;9.80;;;15.80;48.80;;;;;;5085969;28;20058;-79
2024/03/07 11:52:16;;;;;;;21.98;11.35;;;16.50;46.90;;;;;;5082829;28;20408;-80
2024/03/07 11:54:46;;;;;;;21.40;11.38;;;16.30;46.30;;;;;;5086033;28;20055;-80
2024/03/07 11:57:16;;;;;;;19.10;10.30;;;16.00;48.10;;;;;;5064257;28;20513;-80
2024/03/07 11:59:46;;;;;;;26.45;10.13;;;16.40;48.10;;;;;;5063218;28;20651;-80
2024/03/07 12:02:17;;;;;;;23.02;10.95;;;17.00;46.80;;;;;;5087028;28;20762;-80
2024/03/07 12:04:44;;;;;;;23.00;11.40;;;17.80;45.20;;;;;;5076216;28;20040;-80
2024/03/07 12:07:11;;;;;;;21.15;10.20;;;18.30;44.60;;;;;;5065571;28;20048;-79
2024/03/07 12:09:39;;;;;;;19.88;10.38;;;18.70;44.70;;;;;;5072273;28;20048;-81
2024/03/07 12:12:06;;;;;;;25.30;10.18;;;18.60;42.00;;;;;;5083585;28;20048;-80
2024/03/07 12:14:33;;;;;;;18.50;10.00;;;18.20;42.60;;;;;;5072929;28;20052;-80
2024/03/07 12:17:06;;;;;;;17.83;9.95;;;18.40;43.20;;;;;;5079633;28;20055;-80
2024/03/07 12:19:33;;;;;;;19.05;9.95;;;18.00;41.40;;;;;;5068838;28;20074;-80
2024/03/07 12:22:02;;;;;;;16.10;9.00;;;17.40;44.40;;;;;;5061789;28;20048;-80
2024/03/07 12:24:29;;;;;;;21.95;10.55;;;17.90;43.00;;;;;;5082496;28;20079;-80
2024/03/07 12:27:06;;;;;;;21.98;9.57;;;18.40;43.30;;;;;;5085385;28;20047;-80
2024/03/07 12:29:33;;;;;;;19.55;8.88;;;19.30;39.70;;;;;;5081386;28;20055;-80
2024/03/07 12:32:00;;;;;;;17.83;9.07;;;18.70;41.20;;;;;;5059113;28;20061;-80
2024/03/07 12:34:30;;;;;;;20.60;9.02;;;18.80;41.30;;;;;;5062012;28;20051;-81
2024/03/07 12:36:57;;;;;;;23.08;9.25;;;18.50;40.60;;;;;;5079378;28;20140;-80